createdAt,value
2024-03-12T00:02:21.461Z,90773.16
2024-03-12T00:04:47.854Z,90764.72
2024-03-12T00:07:14.658Z,90761.31
2024-03-12T00:09:41.172Z,90775.81
2024-03-12T00:12:07.749Z,90777.88
2024-03-12T00:14:34.817Z,90778.00
2024-03-12T00:17:01.268Z,90776.84
2024-03-12T00:19:28.038Z,90772.06
2024-03-12T00:21:54.491Z,90774.38
2024-03-12T00:24:20.885Z,90773.69
2024-03-12T00:26:48.981Z,90776.25
2024-03-12T00:29:16.563Z,90774.13
2024-03-12T00:31:42.940Z,90782.41
2024-03-12T00:34:11.811Z,90773.94
2024-03-12T00:36:38.330Z,90782.28
2024-03-12T00:39:04.718Z,90778.34
2024-03-12T00:41:31.248Z,90784.81
2024-03-12T00:43:57.662Z,90785.59
2024-03-12T00:46:25.872Z,90790.94
2024-03-12T00:48:52.254Z,90807.72
2024-03-12T00:51:19.453Z,90795.00
2024-03-12T00:53:45.857Z,90812.16
2024-03-12T00:56:16.411Z,90810.78
2024-03-12T00:58:43.265Z,90812.00
2024-03-12T01:01:15.959Z,90814.53
2024-03-12T01:03:43.677Z,90820.19
2024-03-12T01:06:12.104Z,90821.50
2024-03-12T01:08:38.537Z,90827.22
2024-03-12T01:11:04.990Z,90817.50
2024-03-12T01:13:31.423Z,90822.47
2024-03-12T01:15:59.011Z,90829.06
2024-03-12T01:18:25.469Z,90811.19
2024-03-12T01:20:51.831Z,90819.00
2024-03-12T01:23:18.179Z,90815.75
2024-03-12T01:25:44.543Z,90810.78
2024-03-12T01:28:11.654Z,90815.66
2024-03-12T01:30:38.660Z,90820.34
2024-03-12T01:33:06.879Z,90820.50
2024-03-12T01:35:39.025Z,90819.41
2024-03-12T01:38:05.524Z,90815.06
2024-03-12T01:40:32.070Z,90821.03
2024-03-12T01:43:02.497Z,90833.53
2024-03-12T01:45:29.169Z,90825.28
2024-03-12T01:47:56.106Z,90811.88
2024-03-12T01:50:23.173Z,90822.13
2024-03-12T01:52:49.635Z,90826.03
2024-03-12T01:55:17.646Z,90820.91
2024-03-12T01:57:44.291Z,90832.19
2024-03-12T02:00:16.933Z,90828.78
2024-03-12T02:02:43.554Z,90833.75
2024-03-12T02:05:11.305Z,90839.75
2024-03-12T02:07:48.036Z,90835.53
2024-03-12T02:10:14.636Z,90834.44
2024-03-12T02:12:41.504Z,90841.69
2024-03-12T02:15:09.221Z,90832.78
2024-03-12T02:17:35.798Z,90843.81
2024-03-12T02:20:02.281Z,90849.38
2024-03-12T02:22:32.793Z,90850.88
2024-03-12T02:25:00.216Z,90851.34
2024-03-12T02:27:27.016Z,90848.91
2024-03-12T02:29:53.829Z,90851.91
2024-03-12T02:32:20.218Z,90857.69
2024-03-12T02:34:46.557Z,90858.41
2024-03-12T02:37:12.996Z,90863.81
2024-03-12T02:39:39.542Z,90867.91
2024-03-12T02:42:06.296Z,90872.09
2024-03-12T02:44:32.715Z,90879.47
2024-03-12T02:46:59.066Z,90870.69
2024-03-12T02:49:25.512Z,90881.19
2024-03-12T02:51:52.985Z,90868.13
2024-03-12T02:54:19.444Z,90872.13
2024-03-12T02:56:45.860Z,90872.72
2024-03-12T02:59:13.279Z,90874.78
2024-03-12T03:01:39.981Z,90877.38
2024-03-12T03:04:06.539Z,90873.03
2024-03-12T03:06:32.992Z,90871.97
2024-03-12T03:08:59.770Z,90880.25
2024-03-12T03:11:26.457Z,90883.44
2024-03-12T03:13:52.828Z,90879.94
2024-03-12T03:16:21.425Z,90879.44
2024-03-12T03:18:47.979Z,90880.41
2024-03-12T03:21:15.307Z,90873.75
2024-03-12T03:23:43.314Z,90875.91
2024-03-12T03:26:09.840Z,90869.25
2024-03-12T03:28:36.183Z,90875.94
2024-03-12T03:31:02.716Z,90890.28
2024-03-12T03:33:29.239Z,90887.22
2024-03-12T03:35:55.712Z,90897.13
2024-03-12T03:38:22.159Z,90897.66
2024-03-12T03:40:48.769Z,90907.50
2024-03-12T03:43:15.160Z,90903.56
2024-03-12T03:45:41.560Z,90907.75
2024-03-12T03:48:08.127Z,90905.56
2024-03-12T03:50:34.530Z,90906.06
2024-03-12T03:53:00.906Z,90911.53
2024-03-12T03:55:27.275Z,90913.25
2024-03-12T03:57:53.848Z,90916.47
2024-03-12T04:00:24.639Z,90911.47
2024-03-12T04:02:51.180Z,90915.81
2024-03-12T04:05:17.702Z,90917.91
2024-03-12T04:07:45.322Z,90920.38
2024-03-12T04:10:12.085Z,90931.75
2024-03-12T04:12:40.509Z,90920.94
2024-03-12T04:15:07.517Z,90925.03
2024-03-12T04:17:33.942Z,90921.47
2024-03-12T04:20:00.390Z,90923.00
2024-03-12T04:22:27.836Z,90933.59
2024-03-12T04:24:54.252Z,90929.41
2024-03-12T04:27:21.951Z,90935.56
2024-03-12T04:29:48.674Z,90940.28
2024-03-12T04:32:16.304Z,90933.84
2024-03-12T04:34:42.677Z,90943.63
2024-03-12T04:37:09.298Z,90936.31
2024-03-12T04:39:37.106Z,90936.97
2024-03-12T04:42:06.047Z,90947.31
2024-03-12T04:44:35.171Z,90949.63
2024-03-12T04:47:01.601Z,90947.13
2024-03-12T04:49:28.167Z,90956.72
2024-03-12T04:51:54.648Z,90948.38
2024-03-12T04:54:21.174Z,90955.00
2024-03-12T04:56:47.815Z,90957.50
2024-03-12T04:59:16.101Z,90964.13
2024-03-12T05:01:46.036Z,90949.53
2024-03-12T05:04:18.563Z,90951.31
2024-03-12T05:06:49.142Z,90957.16
2024-03-12T05:09:19.011Z,90944.28
2024-03-12T05:11:51.557Z,90953.38
2024-03-12T05:14:17.979Z,90957.16
2024-03-12T05:16:44.345Z,90955.59
2024-03-12T05:19:12.259Z,90965.28
2024-03-12T05:21:39.005Z,90964.50
2024-03-12T05:24:05.815Z,90963.44
2024-03-12T05:26:33.156Z,90973.28
2024-03-12T05:28:59.622Z,90981.56
2024-03-12T05:31:33.757Z,90984.47
2024-03-12T05:34:03.693Z,90983.44
2024-03-12T05:36:42.091Z,90977.13
2024-03-12T05:39:49.126Z,90988.00
2024-03-12T05:42:34.311Z,90991.28
2024-03-12T05:45:19.120Z,90989.41
2024-03-12T05:48:03.977Z,90990.63
2024-03-12T05:50:30.391Z,90992.66
2024-03-12T05:52:57.640Z,90992.75
2024-03-12T05:55:23.996Z,90988.34
2024-03-12T05:57:50.397Z,90988.69
2024-03-12T06:00:17.160Z,90985.53
2024-03-12T06:02:43.886Z,90991.00
2024-03-12T06:05:13.768Z,90984.84
2024-03-12T06:07:41.240Z,90988.16
2024-03-12T06:10:08.634Z,90991.66
2024-03-12T06:12:35.042Z,90994.28
2024-03-12T06:15:01.383Z,90994.22
2024-03-12T06:17:27.829Z,90999.16
2024-03-12T06:19:54.318Z,91012.38
2024-03-12T06:22:20.671Z,91014.84
2024-03-12T06:24:49.273Z,91016.41
2024-03-12T06:27:17.245Z,91021.22
2024-03-12T06:29:44.943Z,91014.06
2024-03-12T06:32:11.649Z,91014.00
2024-03-12T06:34:37.997Z,91014.50
2024-03-12T06:37:04.472Z,91021.28
2024-03-12T06:39:34.015Z,91024.84
2024-03-12T06:42:04.345Z,91027.09
2024-03-12T06:44:33.114Z,91030.47
2024-03-12T06:46:59.536Z,91036.84
2024-03-12T06:49:25.868Z,91035.72
2024-03-12T06:51:55.771Z,91031.13
2024-03-12T06:54:22.314Z,91036.81
2024-03-12T06:56:48.685Z,91045.03
2024-03-12T06:59:17.992Z,91034.06
2024-03-12T07:01:44.747Z,91041.06
2024-03-12T07:04:11.860Z,91043.47
2024-03-12T07:06:39.044Z,91052.03
2024-03-12T07:09:13.538Z,91059.19
2024-03-12T07:11:41.737Z,91056.88
2024-03-12T07:14:24.193Z,91060.44
2024-03-12T07:16:53.219Z,91052.34
2024-03-12T07:19:20.889Z,91063.81
2024-03-12T07:21:47.288Z,91068.38
2024-03-12T07:24:13.714Z,91067.69
2024-03-12T07:26:40.168Z,91076.47
2024-03-12T07:29:10.680Z,91073.47
2024-03-12T07:31:37.038Z,91086.97
2024-03-12T07:34:03.651Z,91075.94
2024-03-12T07:36:33.002Z,91089.47
2024-03-12T07:38:59.439Z,91092.59
2024-03-12T07:41:25.987Z,91092.97
2024-03-12T07:43:52.323Z,91091.75
2024-03-12T07:46:18.977Z,91094.72
2024-03-12T07:48:45.590Z,91103.50
2024-03-12T07:51:12.010Z,91092.63
2024-03-12T07:53:38.369Z,91095.44
2024-03-12T07:56:06.221Z,91101.03
2024-03-12T07:58:32.572Z,91104.91
2024-03-12T08:01:00.225Z,91112.53
2024-03-12T08:03:27.307Z,91107.13
2024-03-12T08:05:54.314Z,91101.63
2024-03-12T08:08:20.707Z,91116.25
2024-03-12T08:10:47.060Z,91109.97
2024-03-12T08:13:13.539Z,91118.09
2024-03-12T08:15:40.213Z,91116.34
2024-03-12T08:18:13.467Z,91118.69
2024-03-12T08:20:47.042Z,91112.91
2024-03-12T08:23:15.266Z,91114.88
2024-03-12T08:25:50.957Z,91123.91
2024-03-12T08:28:22.808Z,91126.47
2024-03-12T08:30:49.230Z,91128.09
2024-03-12T08:33:18.686Z,91133.72
2024-03-12T08:35:45.154Z,91140.38
2024-03-12T08:38:11.539Z,91143.69
2024-03-12T08:40:37.904Z,91143.00
2024-03-12T08:43:06.312Z,91135.03
2024-03-12T08:45:36.809Z,91140.91
2024-03-12T08:48:04.735Z,91135.09
2024-03-12T08:50:31.157Z,91138.69
2024-03-12T08:52:58.844Z,91139.44
2024-03-12T08:55:25.216Z,91137.03
2024-03-12T08:57:52.495Z,91134.03
2024-03-12T09:00:19.852Z,91129.47
2024-03-12T09:02:46.591Z,91135.59
2024-03-12T09:05:13.419Z,91127.41
2024-03-12T09:07:39.793Z,91125.97
2024-03-12T09:10:13.779Z,91131.56
2024-03-12T09:12:41.878Z,91122.63
2024-03-12T09:15:11.540Z,91122.44
2024-03-12T09:17:38.597Z,91126.34
2024-03-12T09:20:11.848Z,91121.19
2024-03-12T09:22:38.744Z,91124.75
2024-03-12T09:25:06.288Z,91128.34
2024-03-12T09:27:32.963Z,91131.78
2024-03-12T09:29:59.389Z,91127.22
2024-03-12T09:32:25.993Z,91139.00
2024-03-12T09:34:55.028Z,91138.91
2024-03-12T09:37:22.044Z,91129.75
2024-03-12T09:39:52.356Z,91139.13
2024-03-12T09:42:19.234Z,91145.28
2024-03-12T09:44:45.722Z,91140.53
2024-03-12T09:47:12.707Z,91137.03
2024-03-12T09:49:41.424Z,91148.38
2024-03-12T09:52:07.989Z,91156.84
2024-03-12T09:54:35.520Z,91154.44
2024-03-12T09:57:02.517Z,91171.22
2024-03-12T09:59:28.873Z,91162.38
2024-03-12T10:01:55.303Z,91164.78
2024-03-12T10:04:21.741Z,91166.38
2024-03-12T10:06:50.314Z,91158.25
2024-03-12T10:09:18.842Z,91169.28
2024-03-12T10:11:46.164Z,91160.06
2024-03-12T10:14:13.667Z,91160.94
2024-03-12T10:16:40.109Z,91161.81
2024-03-12T10:19:10.758Z,91165.69
2024-03-12T10:21:41.561Z,91165.31
2024-03-12T10:24:11.472Z,91164.75
2024-03-12T10:26:37.905Z,91161.31
2024-03-12T10:29:11.093Z,91165.63
2024-03-12T10:31:40.876Z,91159.13
2024-03-12T10:34:07.527Z,91160.09
2024-03-12T10:36:34.494Z,91158.44
2024-03-12T10:39:01.243Z,91153.97
2024-03-12T10:41:27.649Z,91165.97
2024-03-12T10:43:56.372Z,91167.31
2024-03-12T10:46:22.966Z,91165.94
2024-03-12T10:48:51.429Z,91159.97
2024-03-12T10:51:18.657Z,91158.31
2024-03-12T10:53:47.738Z,91151.03
2024-03-12T10:56:16.062Z,91153.97
2024-03-12T10:58:42.766Z,91144.72
2024-03-12T11:01:11.439Z,91137.94
2024-03-12T11:03:38.808Z,91140.34
2024-03-12T11:06:05.226Z,91144.03
2024-03-12T11:08:31.615Z,91142.19
2024-03-12T11:10:58.349Z,91138.28
2024-03-12T11:13:25.038Z,91136.72
2024-03-12T11:15:52.446Z,91143.41
2024-03-12T11:18:35.615Z,91126.44
2024-03-12T11:21:04.955Z,91134.84
2024-03-12T11:23:31.791Z,91136.59
2024-03-12T11:25:58.440Z,91133.22
2024-03-12T11:28:26.070Z,91119.44
2024-03-12T11:30:55.572Z,91112.81
2024-03-12T11:33:41.846Z,91109.22
2024-03-12T11:36:11.739Z,91109.78
2024-03-12T11:38:38.602Z,91101.56
2024-03-12T11:41:05.062Z,91095.69
2024-03-12T11:43:39.010Z,91091.34
2024-03-12T11:46:08.676Z,91095.16
2024-03-12T11:48:35.279Z,91089.56
2024-03-12T11:51:02.209Z,91085.25
2024-03-12T11:53:32.186Z,91091.03
2024-03-12T11:56:09.627Z,91089.78
2024-03-12T11:58:42.306Z,91085.13
2024-03-12T12:01:10.391Z,91080.97
2024-03-12T12:03:39.667Z,91076.31
2024-03-12T12:06:07.409Z,91082.28
2024-03-12T12:08:39.593Z,91087.31
2024-03-12T12:11:12.452Z,91078.03
2024-03-12T12:13:42.283Z,91078.56
2024-03-12T12:16:11.674Z,91087.97
2024-03-12T12:18:39.875Z,91078.53
2024-03-12T12:21:16.094Z,91078.97
2024-03-12T12:23:45.714Z,91083.38
2024-03-12T12:26:15.597Z,91073.66
2024-03-12T12:28:42.487Z,91079.19
2024-03-12T12:31:12.971Z,91075.66
2024-03-12T12:33:39.995Z,91075.09
2024-03-12T12:36:09.291Z,91071.63
2024-03-12T12:38:35.992Z,91076.25
2024-03-12T12:41:02.954Z,91069.25
2024-03-12T12:43:33.917Z,91067.75
2024-03-12T12:46:00.578Z,91077.19
2024-03-12T12:48:28.230Z,91068.38
2024-03-12T12:50:55.666Z,91080.66
2024-03-12T12:53:22.485Z,91073.44
2024-03-12T12:55:58.425Z,91073.56
2024-03-12T12:58:26.121Z,91065.66
2024-03-12T13:01:05.582Z,91076.16
2024-03-12T13:03:36.156Z,91062.91
2024-03-12T13:06:13.539Z,91063.44
2024-03-12T13:08:46.780Z,91055.31
2024-03-12T13:11:13.824Z,91057.25
2024-03-12T13:13:41.993Z,91049.94
2024-03-12T13:16:09.742Z,91048.88
2024-03-12T13:18:41.208Z,91051.56
2024-03-12T13:21:08.257Z,91052.09
2024-03-12T13:23:36.472Z,91054.31
2024-03-12T13:26:02.918Z,91053.84
2024-03-12T13:28:29.776Z,91062.47
2024-03-12T13:30:57.384Z,91054.88
2024-03-12T13:33:23.773Z,91063.66
2024-03-12T13:35:52.812Z,91063.28
2024-03-12T13:38:20.908Z,91060.66
2024-03-12T13:40:47.373Z,91048.06
2024-03-12T13:43:13.935Z,91057.44
2024-03-12T13:45:42.644Z,91065.69
2024-03-12T13:48:09.111Z,91050.81
2024-03-12T13:50:35.533Z,91056.34
2024-03-12T13:53:04.301Z,91041.72
2024-03-12T13:55:30.683Z,91070.47
2024-03-12T13:58:00.221Z,91062.38
2024-03-12T14:00:27.842Z,91061.94
2024-03-12T14:02:54.621Z,91065.13
2024-03-12T14:05:22.027Z,91061.75
2024-03-12T14:07:49.148Z,91072.56
2024-03-12T14:10:15.587Z,91067.91
2024-03-12T14:12:42.877Z,91071.25
2024-03-12T14:15:10.009Z,91069.69
2024-03-12T14:17:36.385Z,91079.91
2024-03-12T14:20:11.971Z,91088.09
2024-03-12T14:22:39.405Z,91093.72
2024-03-12T14:25:08.224Z,91072.34
2024-03-12T14:30:03.072Z,91088.38
2024-03-12T14:32:29.438Z,91083.56
2024-03-12T14:34:55.880Z,91094.53
2024-03-12T14:37:22.277Z,91092.06
2024-03-12T14:39:48.716Z,91094.31
2024-03-12T14:42:15.113Z,91089.97
2024-03-12T14:44:41.610Z,91081.59
2024-03-12T14:47:10.863Z,91093.88
2024-03-12T14:49:38.737Z,91084.94
2024-03-12T14:52:05.988Z,91086.94
2024-03-12T14:54:32.557Z,91083.94
2024-03-12T14:56:59.020Z,91084.31
2024-03-12T14:59:25.348Z,91085.69
2024-03-12T15:01:51.784Z,91083.03
2024-03-12T15:04:19.798Z,91086.53
2024-03-12T15:06:46.295Z,91094.50
2024-03-12T15:09:14.821Z,91095.31
2024-03-12T15:11:42.574Z,91099.97
2024-03-12T15:14:10.749Z,91094.84
2024-03-12T15:16:37.899Z,91092.38
2024-03-12T15:19:07.223Z,91096.25
2024-03-12T15:21:33.770Z,91105.25
2024-03-12T15:24:00.443Z,91111.88
2024-03-12T15:26:26.830Z,91097.63
2024-03-12T15:28:53.200Z,91104.59
2024-03-12T15:31:19.619Z,91105.81
2024-03-12T15:33:46.047Z,91104.25
2024-03-12T15:36:12.379Z,91100.84
2024-03-12T15:38:38.726Z,91098.88
2024-03-12T15:41:07.189Z,91102.63
2024-03-12T15:43:33.581Z,91103.63
2024-03-12T15:46:00.099Z,91106.50
2024-03-12T15:48:26.524Z,91110.31
2024-03-12T15:50:53.146Z,91105.00
2024-03-12T15:53:19.549Z,91108.25
2024-03-12T15:55:47.926Z,91107.94
2024-03-12T15:58:14.468Z,91108.88
2024-03-12T16:00:43.112Z,91109.34
2024-03-12T16:03:11.743Z,91108.31
2024-03-12T16:05:38.520Z,91111.06
2024-03-12T16:08:07.872Z,91120.94
2024-03-12T16:10:34.937Z,91118.50
2024-03-12T16:13:02.826Z,91107.91
2024-03-12T16:15:29.185Z,91115.84
2024-03-12T16:17:56.254Z,91118.56
2024-03-12T16:20:23.105Z,91123.25
2024-03-12T16:22:49.505Z,91126.66
2024-03-12T16:25:15.868Z,91126.72
2024-03-12T16:27:44.306Z,91124.34
2024-03-12T16:30:12.513Z,91131.75
2024-03-12T16:32:41.321Z,91135.59
2024-03-12T16:35:10.830Z,91132.50
2024-03-12T16:37:40.307Z,91128.66
2024-03-12T16:40:11.884Z,91136.72
2024-03-12T16:42:39.108Z,91142.47
2024-03-12T16:45:06.526Z,91139.50
2024-03-12T16:47:33.158Z,91137.31
2024-03-12T16:50:05.611Z,91133.44
2024-03-12T16:52:31.962Z,91140.91
2024-03-12T16:54:58.406Z,91136.63
2024-03-12T16:57:24.914Z,91141.53
2024-03-12T16:59:56.952Z,91137.94
2024-03-12T17:02:27.561Z,91151.28
2024-03-12T17:04:57.746Z,91148.00
2024-03-12T17:07:24.508Z,91143.94
2024-03-12T17:09:51.150Z,91154.53
2024-03-12T17:12:18.831Z,91156.53
2024-03-12T17:14:47.484Z,91170.13
2024-03-12T17:17:13.824Z,91163.72
2024-03-12T17:19:40.228Z,91173.09
2024-03-12T17:22:07.302Z,91172.25
2024-03-12T17:24:35.217Z,91175.25
2024-03-12T17:27:01.742Z,91181.63
2024-03-12T17:29:28.181Z,91193.63
2024-03-12T17:31:59.339Z,91191.47
2024-03-12T17:34:25.998Z,91193.84
2024-03-12T17:36:54.079Z,91194.47
2024-03-12T17:39:21.097Z,91197.97
2024-03-12T17:41:47.708Z,91195.72
2024-03-12T17:44:14.378Z,91205.97
2024-03-12T17:46:44.216Z,91211.81
2024-03-12T17:49:17.362Z,91209.03
2024-03-12T17:51:45.149Z,91218.91
2024-03-12T17:54:17.321Z,91216.75
2024-03-12T17:56:48.052Z,91211.25
2024-03-12T17:59:19.929Z,91218.41
2024-03-12T18:01:47.006Z,91213.31
2024-03-12T18:04:14.181Z,91218.38
2024-03-12T18:06:43.778Z,91220.09
2024-03-12T18:09:13.489Z,91235.06
2024-03-12T18:11:40.272Z,91233.09
2024-03-12T18:14:07.391Z,91232.47
2024-03-12T18:16:38.599Z,91228.84
2024-03-12T18:19:06.740Z,91237.38
2024-03-12T18:21:33.741Z,91239.22
2024-03-12T18:24:01.520Z,91228.34
2024-03-12T18:26:28.587Z,91231.34
2024-03-12T18:28:57.623Z,91239.72
2024-03-12T18:31:24.357Z,91239.09
2024-03-12T18:33:50.922Z,91242.22
2024-03-12T18:36:18.601Z,91248.28
2024-03-12T18:38:45.023Z,91244.22
2024-03-12T18:41:13.377Z,91252.41
2024-03-12T18:43:40.698Z,91258.03
2024-03-12T18:46:07.199Z,91251.34
2024-03-12T18:48:33.694Z,91255.41
2024-03-12T18:51:00.203Z,91256.47
2024-03-12T18:53:26.859Z,91263.25
2024-03-12T18:55:53.975Z,91263.28
2024-03-12T18:58:20.583Z,91257.88
2024-03-12T19:00:47.180Z,91257.16
2024-03-12T19:03:15.723Z,91269.66
2024-03-12T19:05:42.481Z,91271.31
2024-03-12T19:08:09.771Z,91256.50
2024-03-12T19:10:37.102Z,91265.22
2024-03-12T19:13:07.398Z,91272.06
2024-03-12T19:15:38.033Z,91265.91
2024-03-12T19:18:07.794Z,91271.59
2024-03-12T19:20:34.354Z,91271.25
2024-03-12T19:23:00.902Z,91282.44
2024-03-12T19:25:27.682Z,91282.66
2024-03-12T19:27:54.329Z,91278.47
2024-03-12T19:30:21.064Z,91277.50
2024-03-12T19:32:49.106Z,91282.00
2024-03-12T19:35:15.644Z,91272.53
2024-03-12T19:37:42.915Z,91274.13
2024-03-12T19:40:21.038Z,91272.72
2024-03-12T19:42:49.439Z,91274.47
2024-03-12T19:45:19.830Z,91276.75
2024-03-12T19:47:49.950Z,91280.97
2024-03-12T19:50:26.086Z,91286.00
2024-03-12T19:52:54.631Z,91296.16
2024-03-12T19:55:25.441Z,91278.84
2024-03-12T19:57:56.146Z,91288.91
2024-03-12T20:00:24.057Z,91293.16
2024-03-12T20:02:50.616Z,91296.56
2024-03-12T20:05:17.066Z,91299.50
2024-03-12T20:07:46.945Z,91297.09
2024-03-12T20:10:14.662Z,91304.75
2024-03-12T20:12:41.213Z,91291.63
2024-03-12T20:15:14.254Z,91300.72
2024-03-12T20:17:42.057Z,91306.19
2024-03-12T20:20:15.605Z,91308.72
2024-03-12T20:22:42.191Z,91310.06
2024-03-12T20:25:09.649Z,91318.94
2024-03-12T20:27:39.394Z,91321.69
2024-03-12T20:30:06.704Z,91323.13
2024-03-12T20:32:33.297Z,91322.09
2024-03-12T20:34:59.729Z,91317.59
2024-03-12T20:37:26.202Z,91315.97
2024-03-12T20:39:52.740Z,91324.53
2024-03-12T20:42:19.929Z,91321.97
2024-03-12T20:44:46.321Z,91327.88
2024-03-12T20:47:14.517Z,91332.06
2024-03-12T20:49:44.595Z,91334.41
2024-03-12T20:52:12.482Z,91341.13
2024-03-12T20:54:39.832Z,91356.38
2024-03-12T20:57:06.633Z,91353.88
2024-03-12T20:59:32.977Z,91355.81
2024-03-12T21:01:59.435Z,91357.25
2024-03-12T21:04:25.929Z,91359.59
2024-03-12T21:06:52.370Z,91366.59
2024-03-12T21:09:25.062Z,91362.88
2024-03-12T21:11:56.176Z,91373.94
2024-03-12T21:14:23.118Z,91372.53
2024-03-12T21:16:49.621Z,91372.53
2024-03-12T21:19:16.366Z,91373.78
2024-03-12T21:21:44.549Z,91379.53
2024-03-12T21:24:10.926Z,91376.22
2024-03-12T21:26:38.865Z,91384.41
2024-03-12T21:29:07.514Z,91388.25
2024-03-12T21:31:34.266Z,91387.06
2024-03-12T21:34:01.904Z,91394.53
2024-03-12T21:36:28.417Z,91401.34
2024-03-12T21:38:54.753Z,91398.16
2024-03-12T21:41:21.112Z,91400.25
2024-03-12T21:43:47.490Z,91398.13
2024-03-12T21:46:13.872Z,91395.94
2024-03-12T21:48:40.283Z,91387.97
2024-03-12T21:51:08.418Z,91398.81
2024-03-12T21:53:35.405Z,91398.13
2024-03-12T21:56:02.293Z,91390.03
2024-03-12T21:58:28.721Z,91389.09
2024-03-12T22:00:55.129Z,91384.69
2024-03-12T22:03:21.847Z,91375.53
2024-03-12T22:05:48.216Z,91378.25
2024-03-12T22:08:14.589Z,91381.59
2024-03-12T22:10:41.060Z,91380.81
2024-03-12T22:13:08.200Z,91383.00
2024-03-12T22:15:37.272Z,91379.56
2024-03-12T22:18:03.759Z,91380.66
2024-03-12T22:20:30.143Z,91374.03
2024-03-12T22:22:56.468Z,91382.66
2024-03-12T22:25:23.521Z,91381.59
2024-03-12T22:27:50.689Z,91376.97
2024-03-12T22:30:21.182Z,91381.72
2024-03-12T22:32:48.771Z,91370.66
2024-03-12T22:35:16.282Z,91374.22
2024-03-12T22:37:44.487Z,91371.75
2024-03-12T22:40:13.293Z,91362.06
2024-03-12T22:42:39.882Z,91369.28
2024-03-12T22:45:07.296Z,91374.00
2024-03-12T22:47:33.836Z,91369.41
2024-03-12T22:50:00.504Z,91370.97
2024-03-12T22:52:27.602Z,91372.63
2024-03-12T22:54:55.493Z,91369.28
2024-03-12T22:57:24.982Z,91369.22
2024-03-12T22:59:54.620Z,91366.63
2024-03-12T23:02:21.558Z,91361.50
2024-03-12T23:04:54.667Z,91364.00
2024-03-12T23:07:21.125Z,91366.28
2024-03-12T23:09:49.172Z,91364.31
2024-03-12T23:12:16.188Z,91368.41
2024-03-12T23:14:42.609Z,91363.47
2024-03-12T23:17:09.119Z,91356.03
2024-03-12T23:19:40.776Z,91346.44
2024-03-12T23:22:07.594Z,91348.66
2024-03-12T23:24:34.099Z,91348.19
2024-03-12T23:27:00.434Z,91349.38
2024-03-12T23:29:26.808Z,91350.97
2024-03-12T23:31:54.844Z,91344.06
2024-03-12T23:34:22.259Z,91352.66
2024-03-12T23:36:48.844Z,91344.59
2024-03-12T23:39:16.390Z,91340.44
2024-03-12T23:41:42.854Z,91346.63
2024-03-12T23:44:13.812Z,91351.06
2024-03-12T23:46:40.153Z,91339.34
2024-03-12T23:49:07.671Z,91351.47
2024-03-12T23:51:34.423Z,91349.22
2024-03-12T23:54:01.411Z,91350.09
2024-03-12T23:56:27.757Z,91353.63
2024-03-12T23:58:55.401Z,91346.50
